Hauptseite
METAR-TAF:

METAR-TAF

Flughäfen :

Harbin, China

Breite: 45-45N, Länge: 126-46E, Höhe: 143 m

Beobachtung

Neuester Wetterbericht von vor 32 Minuten, um 07:00 UTC
Wind 14 kt aus West
Temperatur -3°C
Luftfeuchtigkeit 54%
Luftdruck 1011 hPa
Sichtweite 10 km oder mehr
Durchbrochene Bewölkung in der Höhe von 3300 ft

METAR: ZYHB 220700Z 26007MPS 9999 BKN033 M03/M11 Q1011 NOSIG

Zeit: 15:32 (07:32 UTC)

Prognose

Neuester Wetterbericht von vor 4 Stunden und 26 Minuten, um 03:06 UTC
Gültige Prognose vom 22 um 06 UTC bis 23 um 06 UTC
Wind 8 kt aus West
Sichtweite: 6000 m
Aufgelockert bewölkt in der Höhe von 3000 ft

TAF: ZYHB 220306Z 2206/2306 26004MPS 6000 SCT030 TXM03/06Z TNM17/22Z

Wetterbeobachtungen und Prognosen von mehr als 4000 Flughäfen (METAR und TAF Bericht).

Die verfügbaren Stationen werden durch gelbe und rote Markierungen auf der Karte dargestellt.

Führen Sie die Maus auf sie, um den Namen der Station zu sehen.

Darauf klicken, um die Beobachtung von Wetterbeobachtungen und Prognosen zu sehen.

Um die Karte zu ändern : klicken Sie auf den grünen Tasten mit einem schwarzen Kreuz Zum Vergrößern, auf den grünen Button mit einem Gedankenstrich zu verkleinern, oder auf die grünen Pfeile für benachbarte Karten.


METAR-TAF: